sensor_id;sensor_type;location;lat;lon;timestamp;pressure;altitude;pressure_sealevel;temperature;humidity
53651;BME280;39552;45.776;15.892;2022-07-17T00:00:20;100925.81;;;22.19;71.15
53651;BME280;39552;45.776;15.892;2022-07-17T00:02:52;100928.84;;;22.54;64.36
53651;BME280;39552;45.776;15.892;2022-07-17T00:05:42;100896.34;;;22.30;64.45
53651;BME280;39552;45.776;15.892;2022-07-17T00:08:17;100899.53;;;22.15;65.78
53651;BME280;39552;45.776;15.892;2022-07-17T00:11:02;100905.53;;;22.11;64.86
53651;BME280;39552;45.776;15.892;2022-07-17T00:13:30;100885.31;;;22.20;57.28
53651;BME280;39552;45.776;15.892;2022-07-17T00:15:57;100889.44;;;22.06;58.58
53651;BME280;39552;45.776;15.892;2022-07-17T00:18:30;100930.56;;;22.37;58.90
53651;BME280;39552;45.776;15.892;2022-07-17T00:21:02;100896.03;;;22.23;57.10
53651;BME280;39552;45.776;15.892;2022-07-17T00:23:33;100906.81;;;22.16;57.69
53651;BME280;39552;45.776;15.892;2022-07-17T00:26:11;100912.03;;;22.19;56.82
53651;BME280;39552;45.776;15.892;2022-07-17T00:28:45;100900.19;;;21.99;57.70
53651;BME280;39552;45.776;15.892;2022-07-17T00:31:28;100903.63;;;22.11;56.60
53651;BME280;39552;45.776;15.892;2022-07-17T00:34:05;100938.25;;;22.24;57.42
53651;BME280;39552;45.776;15.892;2022-07-17T00:36:38;100891.19;;;21.97;56.77
53651;BME280;39552;45.776;15.892;2022-07-17T00:39:14;100897.56;;;21.98;56.13
53651;BME280;39552;45.776;15.892;2022-07-17T00:41:51;100959.69;;;22.40;55.06
53651;BME280;39552;45.776;15.892;2022-07-17T00:44:21;100919.88;;;22.14;54.08
53651;BME280;39552;45.776;15.892;2022-07-17T00:46:48;100916.34;;;22.22;53.77
53651;BME280;39552;45.776;15.892;2022-07-17T00:49:53;100907.00;;;22.05;54.46
53651;BME280;39552;45.776;15.892;2022-07-17T00:52:31;100914.94;;;22.18;53.68
53651;BME280;39552;45.776;15.892;2022-07-17T00:55:07;100943.66;;;22.25;54.18
53651;BME280;39552;45.776;15.892;2022-07-17T00:58:04;100965.97;;;22.32;52.39
53651;BME280;39552;45.776;15.892;2022-07-17T01:00:38;100946.09;;;22.28;53.33
53651;BME280;39552;45.776;15.892;2022-07-17T01:03:14;100972.03;;;22.45;51.97
53651;BME280;39552;45.776;15.892;2022-07-17T01:05:44;100941.31;;;22.21;52.86
53651;BME280;39552;45.776;15.892;2022-07-17T01:08:34;100963.13;;;22.04;63.68
53651;BME280;39552;45.776;15.892;2022-07-17T01:11:10;100959.22;;;21.97;62.98
53651;BME280;39552;45.776;15.892;2022-07-17T01:13:51;100950.53;;;21.82;62.80
53651;BME280;39552;45.776;15.892;2022-07-17T01:16:25;100947.78;;;21.82;63.51
53651;BME280;39552;45.776;15.892;2022-07-17T01:19:03;100974.00;;;21.96;62.88
53651;BME280;39552;45.776;15.892;2022-07-17T01:21:49;100962.25;;;21.94;62.57
53651;BME280;39552;45.776;15.892;2022-07-17T01:24:27;100944.91;;;21.74;66.90
53651;BME280;39552;45.776;15.892;2022-07-17T01:27:01;100966.34;;;21.80;67.92
53651;BME280;39552;45.776;15.892;2022-07-17T01:29:38;100980.00;;;21.72;68.47
53651;BME280;39552;45.776;15.892;2022-07-17T01:32:11;100988.41;;;21.60;69.47
53651;BME280;39552;45.776;15.892;2022-07-17T01:34:57;100961.16;;;21.67;68.35
53651;BME280;39552;45.776;15.892;2022-07-17T01:37:44;100951.75;;;21.60;67.35
53651;BME280;39552;45.776;15.892;2022-07-17T01:40:30;100949.84;;;21.60;68.46
53651;BME280;39552;45.776;15.892;2022-07-17T01:43:24;100974.31;;;21.93;71.85
53651;BME280;39552;45.776;15.892;2022-07-17T01:46:10;100981.31;;;21.77;69.75
53651;BME280;39552;45.776;15.892;2022-07-17T01:48:41;100998.09;;;21.94;68.14
53651;BME280;39552;45.776;15.892;2022-07-17T01:51:17;100988.81;;;21.95;68.81
53651;BME280;39552;45.776;15.892;2022-07-17T01:53:56;100960.88;;;21.60;68.82
53651;BME280;39552;45.776;15.892;2022-07-17T01:56:34;100976.22;;;21.63;65.17
53651;BME280;39552;45.776;15.892;2022-07-17T01:59:20;100947.94;;;21.71;57.60
53651;BME280;39552;45.776;15.892;2022-07-17T02:05:05;100959.25;;;21.87;54.07
53651;BME280;39552;45.776;15.892;2022-07-17T02:07:34;100949.25;;;21.76;52.51
53651;BME280;39552;45.776;15.892;2022-07-17T02:10:28;100920.75;;;21.58;51.54
53651;BME280;39552;45.776;15.892;2022-07-17T02:13:05;100931.59;;;21.69;50.44
53651;BME280;39552;45.776;15.892;2022-07-17T02:15:36;100935.63;;;21.65;50.84
53651;BME280;39552;45.776;15.892;2022-07-17T02:18:30;100988.81;;;21.95;50.22
53651;BME280;39552;45.776;15.892;2022-07-17T02:21:07;100963.47;;;21.82;50.10
53651;BME280;39552;45.776;15.892;2022-07-17T02:23:54;100983.91;;;21.89;49.54
53651;BME280;39552;45.776;15.892;2022-07-17T02:26:37;100965.91;;;21.75;50.44
53651;BME280;39552;45.776;15.892;2022-07-17T02:29:12;100963.47;;;21.62;50.32
53651;BME280;39552;45.776;15.892;2022-07-17T02:31:46;100973.06;;;21.58;49.94
53651;BME280;39552;45.776;15.892;2022-07-17T02:34:13;101014.94;;;21.81;50.09
53651;BME280;39552;45.776;15.892;2022-07-17T02:36:47;100979.69;;;21.75;49.36
53651;BME280;39552;45.776;15.892;2022-07-17T02:39:21;100990.16;;;21.81;48.97
53651;BME280;39552;45.776;15.892;2022-07-17T02:41:59;101001.16;;;21.91;49.30
53651;BME280;39552;45.776;15.892;2022-07-17T02:44:29;101018.09;;;21.96;48.95
53651;BME280;39552;45.776;15.892;2022-07-17T02:46:58;101009.81;;;21.96;48.81
53651;BME280;39552;45.776;15.892;2022-07-17T02:49:27;100995.47;;;21.83;48.65
53651;BME280;39552;45.776;15.892;2022-07-17T02:51:54;101021.44;;;21.90;49.52
53651;BME280;39552;45.776;15.892;2022-07-17T02:54:24;101005.06;;;21.78;48.31
53651;BME280;39552;45.776;15.892;2022-07-17T02:56:55;101010.44;;;21.80;48.64
53651;BME280;39552;45.776;15.892;2022-07-17T02:59:29;101018.53;;;21.91;48.25
53651;BME280;39552;45.776;15.892;2022-07-17T03:02:04;101009.72;;;21.68;49.25
53651;BME280;39552;45.776;15.892;2022-07-17T03:04:37;101038.41;;;21.85;48.64
53651;BME280;39552;45.776;15.892;2022-07-17T03:07:04;101019.72;;;21.79;48.28
53651;BME280;39552;45.776;15.892;2022-07-17T03:09:36;100994.22;;;21.67;48.54
53651;BME280;39552;45.776;15.892;2022-07-17T03:12:06;101027.97;;;21.89;48.04
53651;BME280;39552;45.776;15.892;2022-07-17T03:14:34;101043.06;;;21.85;48.49
53651;BME280;39552;45.776;15.892;2022-07-17T03:17:07;101020.44;;;21.71;47.90
53651;BME280;39552;45.776;15.892;2022-07-17T03:19:38;101025.78;;;21.83;47.96
53651;BME280;39552;45.776;15.892;2022-07-17T03:22:17;101029.72;;;21.70;48.65
53651;BME280;39552;45.776;15.892;2022-07-17T03:24:44;101016.25;;;21.67;47.69
53651;BME280;39552;45.776;15.892;2022-07-17T03:27:13;101020.72;;;21.68;48.55
53651;BME280;39552;45.776;15.892;2022-07-17T03:29:44;101070.75;;;21.93;48.18
53651;BME280;39552;45.776;15.892;2022-07-17T03:32:16;101043.22;;;21.73;49.01
53651;BME280;39552;45.776;15.892;2022-07-17T03:34:47;101052.47;;;21.82;48.47
53651;BME280;39552;45.776;15.892;2022-07-17T03:37:17;101021.44;;;21.60;48.04
53651;BME280;39552;45.776;15.892;2022-07-17T03:39:49;101090.75;;;21.95;48.91
53651;BME280;39552;45.776;15.892;2022-07-17T03:42:17;101075.38;;;21.83;48.03
53651;BME280;39552;45.776;15.892;2022-07-17T03:44:55;101086.69;;;21.89;48.95
53651;BME280;39552;45.776;15.892;2022-07-17T03:47:30;101077.84;;;21.86;48.35
53651;BME280;39552;45.776;15.892;2022-07-17T03:49:57;101053.50;;;21.71;48.42
53651;BME280;39552;45.776;15.892;2022-07-17T03:52:27;101061.75;;;21.81;48.46
53651;BME280;39552;45.776;15.892;2022-07-17T03:54:55;101071.03;;;21.70;48.60
53651;BME280;39552;45.776;15.892;2022-07-17T03:57:25;101090.44;;;21.78;49.18
53651;BME280;39552;45.776;15.892;2022-07-17T03:59:54;101089.00;;;21.74;49.30
53651;BME280;39552;45.776;15.892;2022-07-17T04:02:23;101091.63;;;21.86;49.64
53651;BME280;39552;45.776;15.892;2022-07-17T04:04:54;101088.41;;;21.71;49.61
53651;BME280;39552;45.776;15.892;2022-07-17T04:07:31;101094.22;;;21.58;50.50
53651;BME280;39552;45.776;15.892;2022-07-17T04:10:05;101088.13;;;21.64;49.59
53651;BME280;39552;45.776;15.892;2022-07-17T04:12:35;101081.75;;;21.54;50.07
53651;BME280;39552;45.776;15.892;2022-07-17T04:15:04;101096.84;;;21.59;49.67
53651;BME280;39552;45.776;15.892;2022-07-17T04:17:41;101122.50;;;21.79;50.18
53651;BME280;39552;45.776;15.892;2022-07-17T04:20:15;101070.41;;;21.47;49.79
53651;BME280;39552;45.776;15.892;2022-07-17T04:22:48;101099.41;;;21.61;51.24
53651;BME280;39552;45.776;15.892;2022-07-17T04:25:15;101111.59;;;21.68;50.75
53651;BME280;39552;45.776;15.892;2022-07-17T04:27:51;101121.47;;;21.71;50.81
53651;BME280;39552;45.776;15.892;2022-07-17T04:30:20;101110.56;;;21.50;51.45
53651;BME280;39552;45.776;15.892;2022-07-17T04:32:46;101137.44;;;21.67;50.73
53651;BME280;39552;45.776;15.892;2022-07-17T04:35:19;101120.28;;;21.54;51.53
53651;BME280;39552;45.776;15.892;2022-07-17T04:37:46;101155.84;;;21.76;51.32
53651;BME280;39552;45.776;15.892;2022-07-17T04:40:13;101149.59;;;21.74;52.29
53651;BME280;39552;45.776;15.892;2022-07-17T04:42:40;101159.03;;;21.82;50.14
53651;BME280;39552;45.776;15.892;2022-07-17T04:45:08;101117.38;;;21.55;50.21
53651;BME280;39552;45.776;15.892;2022-07-17T04:47:39;101138.25;;;21.48;50.39
53651;BME280;39552;45.776;15.892;2022-07-17T04:50:10;101125.72;;;21.34;50.74
53651;BME280;39552;45.776;15.892;2022-07-17T04:52:40;101167.13;;;21.64;50.66
53651;BME280;39552;45.776;15.892;2022-07-17T04:55:15;101179.16;;;21.72;50.09
53651;BME280;39552;45.776;15.892;2022-07-17T04:57:48;101156.72;;;21.67;50.38
53651;BME280;39552;45.776;15.892;2022-07-17T05:00:15;101174.34;;;21.55;51.55
53651;BME280;39552;45.776;15.892;2022-07-17T05:02:48;101147.00;;;21.42;51.71
53651;BME280;39552;45.776;15.892;2022-07-17T05:05:15;101177.72;;;21.68;51.74
53651;BME280;39552;45.776;15.892;2022-07-17T05:07:45;101144.94;;;21.65;51.04
53651;BME280;39552;45.776;15.892;2022-07-17T05:10:19;101155.50;;;21.50;50.79
53651;BME280;39552;45.776;15.892;2022-07-17T05:12:54;101155.44;;;21.40;52.48
53651;BME280;39552;45.776;15.892;2022-07-17T05:15:21;101168.25;;;21.51;51.19
53651;BME280;39552;45.776;15.892;2022-07-17T05:17:49;101192.38;;;21.78;50.71
53651;BME280;39552;45.776;15.892;2022-07-17T05:20:16;101200.34;;;21.72;51.25
53651;BME280;39552;45.776;15.892;2022-07-17T05:22:48;101203.56;;;21.77;51.25
53651;BME280;39552;45.776;15.892;2022-07-17T05:25:15;101199.19;;;21.74;51.00
53651;BME280;39552;45.776;15.892;2022-07-17T05:27:47;101157.69;;;21.56;50.94
53651;BME280;39552;45.776;15.892;2022-07-17T05:30:14;101178.56;;;21.59;51.93
53651;BME280;39552;45.776;15.892;2022-07-17T05:32:43;101153.59;;;21.51;50.76
53651;BME280;39552;45.776;15.892;2022-07-17T05:35:11;101193.97;;;21.71;50.32
53651;BME280;39552;45.776;15.892;2022-07-17T05:37:38;101199.19;;;21.84;51.31
53651;BME280;39552;45.776;15.892;2022-07-17T05:40:07;101178.59;;;21.78;49.68
53651;BME280;39552;45.776;15.892;2022-07-17T05:42:55;101158.59;;;21.76;49.42
53651;BME280;39552;45.776;15.892;2022-07-17T05:45:32;101185.88;;;21.99;50.16
53651;BME280;39552;45.776;15.892;2022-07-17T05:47:59;101202.44;;;21.99;50.57
53651;BME280;39552;45.776;15.892;2022-07-17T05:50:31;101228.53;;;22.05;50.29
53651;BME280;39552;45.776;15.892;2022-07-17T05:53:00;101191.25;;;22.01;49.94
53651;BME280;39552;45.776;15.892;2022-07-17T05:55:36;101207.94;;;21.99;49.19
53651;BME280;39552;45.776;15.892;2022-07-17T05:58:12;101233.78;;;22.17;49.07
53651;BME280;39552;45.776;15.892;2022-07-17T06:00:45;101204.59;;;22.05;50.13
53651;BME280;39552;45.776;15.892;2022-07-17T06:03:45;101242.97;;;22.37;48.99
53651;BME280;39552;45.776;15.892;2022-07-17T06:06:50;101179.38;;;22.00;47.87
53651;BME280;39552;45.776;15.892;2022-07-17T06:09:32;101185.22;;;22.26;48.62
53651;BME280;39552;45.776;15.892;2022-07-17T06:12:04;101220.19;;;22.45;48.56
53651;BME280;39552;45.776;15.892;2022-07-17T06:14:31;101233.84;;;22.37;48.29
53651;BME280;39552;45.776;15.892;2022-07-17T06:16:57;101220.47;;;22.32;49.78
53651;BME280;39552;45.776;15.892;2022-07-17T06:19:38;101221.47;;;22.22;50.19
53651;BME280;39552;45.776;15.892;2022-07-17T06:22:07;101230.63;;;22.32;48.66
53651;BME280;39552;45.776;15.892;2022-07-17T06:24:34;101222.78;;;22.17;46.94
53651;BME280;39552;45.776;15.892;2022-07-17T06:27:01;101237.28;;;22.19;47.98
53651;BME280;39552;45.776;15.892;2022-07-17T06:29:27;101242.19;;;22.16;48.12
53651;BME280;39552;45.776;15.892;2022-07-17T06:31:54;101196.44;;;21.84;49.03
53651;BME280;39552;45.776;15.892;2022-07-17T06:34:21;101222.19;;;22.14;49.51
53651;BME280;39552;45.776;15.892;2022-07-17T06:36:48;101195.88;;;21.90;49.04
53651;BME280;39552;45.776;15.892;2022-07-17T06:39:20;101206.75;;;22.02;49.41
53651;BME280;39552;45.776;15.892;2022-07-17T06:41:47;101247.97;;;22.13;48.88
53651;BME280;39552;45.776;15.892;2022-07-17T06:44:17;101242.94;;;22.18;47.83
53651;BME280;39552;45.776;15.892;2022-07-17T06:46:44;101228.88;;;22.31;48.30
53651;BME280;39552;45.776;15.892;2022-07-17T06:49:23;101230.63;;;22.32;46.77
53651;BME280;39552;45.776;15.892;2022-07-17T06:51:52;101217.84;;;22.41;48.25
53651;BME280;39552;45.776;15.892;2022-07-17T06:54:20;101244.88;;;22.66;48.11
53651;BME280;39552;45.776;15.892;2022-07-17T06:56:52;101236.28;;;22.60;49.14
53651;BME280;39552;45.776;15.892;2022-07-17T06:59:26;101241.50;;;22.72;47.89
53651;BME280;39552;45.776;15.892;2022-07-17T07:01:55;101247.63;;;22.66;46.78
53651;BME280;39552;45.776;15.892;2022-07-17T07:04:26;101238.31;;;22.77;47.64
53651;BME280;39552;45.776;15.892;2022-07-17T07:06:55;101224.13;;;22.62;46.60
53651;BME280;39552;45.776;15.892;2022-07-17T07:09:24;101235.25;;;22.80;46.74
53651;BME280;39552;45.776;15.892;2022-07-17T07:11:54;101210.00;;;22.65;46.94
53651;BME280;39552;45.776;15.892;2022-07-17T07:14:28;101252.41;;;22.84;46.40
53651;BME280;39552;45.776;15.892;2022-07-17T07:16:57;101221.59;;;22.88;45.21
53651;BME280;39552;45.776;15.892;2022-07-17T07:19:24;101223.66;;;22.67;45.17
53651;BME280;39552;45.776;15.892;2022-07-17T07:21:51;101223.53;;;22.68;45.06
53651;BME280;39552;45.776;15.892;2022-07-17T07:24:23;101259.81;;;22.83;45.06
53651;BME280;39552;45.776;15.892;2022-07-17T07:26:56;101272.59;;;23.04;45.71
53651;BME280;39552;45.776;15.892;2022-07-17T07:29:23;101268.72;;;23.44;46.55
53651;BME280;39552;45.776;15.892;2022-07-17T07:31:50;101277.81;;;23.54;45.84
53651;BME280;39552;45.776;15.892;2022-07-17T07:34:17;101264.88;;;23.54;44.90
53651;BME280;39552;45.776;15.892;2022-07-17T07:36:44;101264.94;;;23.82;45.57
53651;BME280;39552;45.776;15.892;2022-07-17T07:39:11;101279.13;;;23.97;44.99
53651;BME280;39552;45.776;15.892;2022-07-17T07:41:40;101264.19;;;23.90;44.39
53651;BME280;39552;45.776;15.892;2022-07-17T07:44:07;101266.09;;;23.80;44.23
53651;BME280;39552;45.776;15.892;2022-07-17T07:46:34;101269.69;;;23.90;45.34
53651;BME280;39552;45.776;15.892;2022-07-17T07:49:01;101246.22;;;23.66;45.03
53651;BME280;39552;45.776;15.892;2022-07-17T07:51:28;101267.13;;;23.79;46.27
53651;BME280;39552;45.776;15.892;2022-07-17T07:54:15;101264.69;;;23.66;47.03
53651;BME280;39552;45.776;15.892;2022-07-17T07:56:43;101226.53;;;23.51;45.07
53651;BME280;39552;45.776;15.892;2022-07-17T07:59:10;101272.56;;;23.61;44.57
53651;BME280;39552;45.776;15.892;2022-07-17T08:01:40;101247.97;;;23.30;44.18
53651;BME280;39552;45.776;15.892;2022-07-17T08:04:09;101238.63;;;23.41;44.76
53651;BME280;39552;45.776;15.892;2022-07-17T08:06:36;101270.75;;;23.79;45.04
53651;BME280;39552;45.776;15.892;2022-07-17T08:09:05;101280.94;;;23.79;45.36
53651;BME280;39552;45.776;15.892;2022-07-17T08:11:33;101281.44;;;23.64;46.95
53651;BME280;39552;45.776;15.892;2022-07-17T08:14:02;101265.72;;;23.65;45.72
53651;BME280;39552;45.776;15.892;2022-07-17T08:16:41;101238.25;;;23.63;46.04
53651;BME280;39552;45.776;15.892;2022-07-17T08:19:09;101239.16;;;23.54;46.19
53651;BME280;39552;45.776;15.892;2022-07-17T08:21:36;101235.56;;;23.44;44.87
53651;BME280;39552;45.776;15.892;2022-07-17T08:24:03;101251.16;;;23.72;45.35
53651;BME280;39552;45.776;15.892;2022-07-17T08:26:31;101254.03;;;23.81;45.72
53651;BME280;39552;45.776;15.892;2022-07-17T08:28:58;101250.66;;;23.77;47.91
53651;BME280;39552;45.776;15.892;2022-07-17T08:31:26;101267.22;;;23.87;45.71
53651;BME280;39552;45.776;15.892;2022-07-17T08:33:53;101270.28;;;23.93;48.09
53651;BME280;39552;45.776;15.892;2022-07-17T08:36:20;101261.97;;;23.93;49.76
53651;BME280;39552;45.776;15.892;2022-07-17T08:38:47;101226.25;;;23.82;48.58
53651;BME280;39552;45.776;15.892;2022-07-17T08:41:15;101261.91;;;24.03;48.11
53651;BME280;39552;45.776;15.892;2022-07-17T08:43:42;101246.41;;;23.92;45.97
53651;BME280;39552;45.776;15.892;2022-07-17T08:46:10;101243.56;;;24.02;49.45
53651;BME280;39552;45.776;15.892;2022-07-17T08:48:40;101264.47;;;23.87;47.19
53651;BME280;39552;45.776;15.892;2022-07-17T08:51:08;101267.13;;;24.06;47.77
53651;BME280;39552;45.776;15.892;2022-07-17T08:53:35;101264.78;;;24.11;48.19
53651;BME280;39552;45.776;15.892;2022-07-17T08:56:02;101231.97;;;23.99;47.95
53651;BME280;39552;45.776;15.892;2022-07-17T08:58:29;101252.13;;;24.09;45.72
53651;BME280;39552;45.776;15.892;2022-07-17T09:00:56;101251.75;;;24.22;45.56
53651;BME280;39552;45.776;15.892;2022-07-17T09:03:23;101262.59;;;24.33;45.26
53651;BME280;39552;45.776;15.892;2022-07-17T09:05:51;101244.91;;;23.98;44.05
53651;BME280;39552;45.776;15.892;2022-07-17T09:08:20;101262.13;;;23.92;44.36
53651;BME280;39552;45.776;15.892;2022-07-17T09:11:01;101233.63;;;23.91;46.42
53651;BME280;39552;45.776;15.892;2022-07-17T09:13:50;101231.44;;;23.85;43.14
53651;BME280;39552;45.776;15.892;2022-07-17T09:16:30;101251.44;;;24.25;46.47
53651;BME280;39552;45.776;15.892;2022-07-17T09:19:05;101213.44;;;24.27;46.30
53651;BME280;39552;45.776;15.892;2022-07-17T09:22:20;101230.44;;;24.32;44.96
53651;BME280;39552;45.776;15.892;2022-07-17T09:24:58;101195.72;;;24.02;43.70
53651;BME280;39552;45.776;15.892;2022-07-17T09:27:32;101218.72;;;24.20;44.82
53651;BME280;39552;45.776;15.892;2022-07-17T09:30:13;101220.22;;;24.14;43.79
53651;BME280;39552;45.776;15.892;2022-07-17T09:32:54;101228.53;;;24.50;44.83
53651;BME280;39552;45.776;15.892;2022-07-17T09:35:24;101227.81;;;24.66;45.63
53651;BME280;39552;45.776;15.892;2022-07-17T09:38:00;101204.66;;;24.31;42.99
53651;BME280;39552;45.776;15.892;2022-07-17T09:40:44;101216.03;;;24.64;46.19
53651;BME280;39552;45.776;15.892;2022-07-17T09:43:26;101223.78;;;24.79;44.50
53651;BME280;39552;45.776;15.892;2022-07-17T09:46:21;101186.81;;;24.44;43.77
53651;BME280;39552;45.776;15.892;2022-07-17T09:49:00;101200.31;;;24.29;44.93
53651;BME280;39552;45.776;15.892;2022-07-17T09:51:47;101211.91;;;24.50;46.12
53651;BME280;39552;45.776;15.892;2022-07-17T09:54:35;101192.84;;;24.57;44.07
53651;BME280;39552;45.776;15.892;2022-07-17T09:57:30;101195.59;;;24.57;43.35
53651;BME280;39552;45.776;15.892;2022-07-17T10:00:18;101200.28;;;24.83;45.68
53651;BME280;39552;45.776;15.892;2022-07-17T10:02:50;101215.75;;;24.67;43.22
53651;BME280;39552;45.776;15.892;2022-07-17T10:05:20;101229.41;;;24.69;42.97
53651;BME280;39552;45.776;15.892;2022-07-17T10:07:54;101186.41;;;24.57;43.18
53651;BME280;39552;45.776;15.892;2022-07-17T10:10:22;101200.19;;;24.92;43.92
53651;BME280;39552;45.776;15.892;2022-07-17T10:12:50;101199.69;;;24.97;42.56
53651;BME280;39552;45.776;15.892;2022-07-17T10:15:27;101195.66;;;24.91;43.46
53651;BME280;39552;45.776;15.892;2022-07-17T10:18:04;101200.66;;;25.14;42.51
53651;BME280;39552;45.776;15.892;2022-07-17T10:20:31;101186.94;;;25.04;42.38
53651;BME280;39552;45.776;15.892;2022-07-17T10:23:12;101209.50;;;25.44;43.41
53651;BME280;39552;45.776;15.892;2022-07-17T10:25:40;101199.78;;;25.40;39.41
53651;BME280;39552;45.776;15.892;2022-07-17T10:28:07;101186.66;;;25.16;40.02
53651;BME280;39552;45.776;15.892;2022-07-17T10:30:34;101194.63;;;25.45;41.62
53651;BME280;39552;45.776;15.892;2022-07-17T10:33:05;101206.41;;;25.47;40.36
53651;BME280;39552;45.776;15.892;2022-07-17T10:35:42;101201.75;;;25.21;39.18
53651;BME280;39552;45.776;15.892;2022-07-17T10:38:11;101181.75;;;25.27;40.02
53651;BME280;39552;45.776;15.892;2022-07-17T10:40:39;101181.44;;;25.39;40.36
53651;BME280;39552;45.776;15.892;2022-07-17T10:43:07;101188.44;;;25.59;40.80
53651;BME280;39552;45.776;15.892;2022-07-17T10:45:35;101177.69;;;25.48;40.24
53651;BME280;39552;45.776;15.892;2022-07-17T10:48:04;101193.50;;;25.56;39.03
53651;BME280;39552;45.776;15.892;2022-07-17T10:50:32;101199.41;;;25.69;40.66
53651;BME280;39552;45.776;15.892;2022-07-17T10:53:02;101171.03;;;25.06;39.18
53651;BME280;39552;45.776;15.892;2022-07-17T10:55:29;101171.28;;;25.21;40.94
53651;BME280;39552;45.776;15.892;2022-07-17T10:57:58;101180.47;;;25.48;40.08
53651;BME280;39552;45.776;15.892;2022-07-17T11:00:25;101163.97;;;25.38;40.41
53651;BME280;39552;45.776;15.892;2022-07-17T11:02:52;101181.50;;;25.55;42.66
53651;BME280;39552;45.776;15.892;2022-07-17T11:05:21;101160.69;;;25.43;41.53
53651;BME280;39552;45.776;15.892;2022-07-17T11:07:50;101168.00;;;25.95;42.64
53651;BME280;39552;45.776;15.892;2022-07-17T11:10:17;101172.69;;;25.94;39.80
53651;BME280;39552;45.776;15.892;2022-07-17T11:12:44;101172.06;;;25.74;39.53
53651;BME280;39552;45.776;15.892;2022-07-17T11:15:12;101161.81;;;25.66;40.83
53651;BME280;39552;45.776;15.892;2022-07-17T11:17:44;101147.03;;;25.49;40.56
53651;BME280;39552;45.776;15.892;2022-07-17T11:20:11;101161.59;;;25.94;41.51
53651;BME280;39552;45.776;15.892;2022-07-17T11:22:38;101132.13;;;26.09;41.92
53651;BME280;39552;45.776;15.892;2022-07-17T11:25:06;101144.81;;;26.20;40.24
53651;BME280;39552;45.776;15.892;2022-07-17T11:27:34;101151.72;;;26.33;40.41
53651;BME280;39552;45.776;15.892;2022-07-17T11:30:03;101152.25;;;26.28;38.97
53651;BME280;39552;45.776;15.892;2022-07-17T11:32:37;101144.97;;;26.11;40.27
53651;BME280;39552;45.776;15.892;2022-07-17T11:35:15;101141.16;;;26.36;40.83
53651;BME280;39552;45.776;15.892;2022-07-17T11:38:02;101130.78;;;26.46;39.91
53651;BME280;39552;45.776;15.892;2022-07-17T11:40:29;101130.22;;;26.51;40.38
53651;BME280;39552;45.776;15.892;2022-07-17T11:42:59;101141.53;;;26.66;40.01
53651;BME280;39552;45.776;15.892;2022-07-17T11:45:26;101126.25;;;26.78;41.98
53651;BME280;39552;45.776;15.892;2022-07-17T11:48:00;101127.47;;;26.59;39.20
53651;BME280;39552;45.776;15.892;2022-07-17T11:50:27;101120.03;;;26.27;39.65
53651;BME280;39552;45.776;15.892;2022-07-17T11:53:00;101124.69;;;26.51;40.20
53651;BME280;39552;45.776;15.892;2022-07-17T11:55:34;101120.72;;;26.37;38.07
53651;BME280;39552;45.776;15.892;2022-07-17T11:58:01;101095.75;;;26.04;38.27
53651;BME280;39552;45.776;15.892;2022-07-17T12:00:28;101089.50;;;26.19;39.92
53651;BME280;39552;45.776;15.892;2022-07-17T12:03:01;101103.00;;;26.55;39.31
53651;BME280;39552;45.776;15.892;2022-07-17T12:05:30;101084.81;;;26.27;39.21
53651;BME280;39552;45.776;15.892;2022-07-17T12:07:58;101104.75;;;26.47;40.98
53651;BME280;39552;45.776;15.892;2022-07-17T12:10:27;101081.16;;;26.68;41.29
53651;BME280;39552;45.776;15.892;2022-07-17T12:12:56;101081.22;;;26.99;40.75
53651;BME280;39552;45.776;15.892;2022-07-17T12:15:34;101099.72;;;27.32;40.53
53651;BME280;39552;45.776;15.892;2022-07-17T12:18:03;101087.44;;;27.10;39.77
53651;BME280;39552;45.776;15.892;2022-07-17T12:20:43;101092.22;;;26.93;38.32
53651;BME280;39552;45.776;15.892;2022-07-17T12:23:25;101071.44;;;27.20;42.16
53651;BME280;39552;45.776;15.892;2022-07-17T12:26:03;101061.56;;;27.09;39.58
53651;BME280;39552;45.776;15.892;2022-07-17T12:28:31;101052.09;;;26.95;38.16
53651;BME280;39552;45.776;15.892;2022-07-17T12:30:57;101071.56;;;26.87;38.16
53651;BME280;39552;45.776;15.892;2022-07-17T12:33:26;101062.88;;;26.90;39.41
53651;BME280;39552;45.776;15.892;2022-07-17T12:35:53;101065.00;;;27.19;39.68
53651;BME280;39552;45.776;15.892;2022-07-17T12:38:20;101088.88;;;27.45;38.83
53651;BME280;39552;45.776;15.892;2022-07-17T12:40:49;101084.28;;;27.60;38.33
53651;BME280;39552;45.776;15.892;2022-07-17T12:43:16;101068.25;;;27.39;39.08
53651;BME280;39552;45.776;15.892;2022-07-17T12:45:43;101077.41;;;27.71;40.20
53651;BME280;39552;45.776;15.892;2022-07-17T12:48:10;101070.38;;;27.60;39.02
53651;BME280;39552;45.776;15.892;2022-07-17T12:50:38;101046.06;;;27.23;38.28
53651;BME280;39552;45.776;15.892;2022-07-17T12:53:05;101058.03;;;27.23;40.20
53651;BME280;39552;45.776;15.892;2022-07-17T12:55:32;101069.44;;;27.37;39.12
53651;BME280;39552;45.776;15.892;2022-07-17T12:57:59;101066.41;;;27.55;38.43
53651;BME280;39552;45.776;15.892;2022-07-17T13:00:26;101056.00;;;27.80;39.70
53651;BME280;39552;45.776;15.892;2022-07-17T13:02:53;101034.53;;;27.65;40.58
53651;BME280;39552;45.776;15.892;2022-07-17T13:05:48;101055.09;;;27.56;38.16
53651;BME280;39552;45.776;15.892;2022-07-17T13:08:18;101052.53;;;27.78;39.00
53651;BME280;39552;45.776;15.892;2022-07-17T13:10:48;101013.34;;;27.88;38.77